Terminal Aerodrome Forecast
Issued by NWS

Home | Current Version | Previous Version | Text Only | Print | Product List | Glossary On
Versions: 1 2 3 4 5 6 7 8 9 10 11 12 13 14 15 16 17
000
FTUS43 KMQT 132300
TAFCMX
TAF
KCMX 132333Z 1400/1424 27013G20KT P6SM SCT060 BKN080
     FM140100 27010KT P6SM VCSH BKN060
     FM141000 28008KT P6SM VCSH BKN025
      TEMPO 1410/1414 5SM -SHRA BKN015
     FM141400 29013KT P6SM VCSH BKN025=

USA.gov is the U.S. government's official web portal to all federal, state and local government web resources and services.